Portada
METAR-TAF:

METAR-TAF

Aeropuertos :

Aeropuerto de Mostar

Mostar, Bosnia y Herzegovina

latitud: 43-21N, longitud: 017-48E, altitud: 108 m

Observación

El informe se hizo hace 36 minutos, a las 11:30 UTC
Viento 4 kt con dirección variable
Temperatura 33°C
Humedad 32%
Presión 1013 hPa
Visibilidad 10 km o más
Escasas nubes a una altura de 5000 ft

METAR: LQMO 131130Z VRB04KT 9999 FEW050 33/14 Q1013

Hora: 14:06 (12:06 UTC)

Pronóstico

El informe se hizo hace 1 hora y 6 minutos, a las 11:00 UTC
Pronóstico válido del 13 a las 12 UTC al 14 a las 12 UTC
Viento 5 kt del oeste-suroeste
Visibilidad 10 km o más
Escasas nubes a una altura de 5000 ft

TAF: LQMO 131100Z 1312/1412 24005KT 9999 FEW050 TX36/1313Z TN19/1404Z

Observaciones y pronósticos meteorológicos de más de 4000 aeropuertos (mensajes METAR y TAF).

Los puntos amarillos y rojos representan las estaciones disponibles.

Ponga el ratón en el punto deseado para ver el nombre de la estación.

Haga clic para ver las observaciones y los pronósticos meteorológicos.

Para cambiar el mapa : haga clic en los botones verdes con una cruz de color negro para hacer un zoom, en el botón verde con un guión para alejar o en las flechas verdes para mapas adyacentes.


METAR-TAF: